Hoard, Wisconsin
Current Conditions -  °F | °C
As of 6:55 AM on Tuesday 21 Oct 2014 (Local Time) from KMDZ Reporting Station
Overcast Overcast  
Wind Chill: 32°   Ceiling: 1700
Heat Index: 39°   Visibility: 10mi
Dew Point: 34°   Wind: 12mph
Humidity: 80%   Direction: 50°NE
Pressure: 30.18"   Gusts: NA
Location:  44.9591°N, 90.4659°W
Report Text: KMDZ 211155Z AUTO 05010KT 10SM OVC017 04/01 A3018 RMK AO2 T00400009 10060 20023
Loading
Personal Weather Stations






























Interactive Weather Map
Tropical Storm Tracking
New forecast layout! Learn more

10-Day Weather Forecast

Advertisements
Track Severe Weather on mobile